IGO537 VOBL-VOHS
Flight info
| Callsign | IGO537 |
|---|---|
| Flight time | 0h 44m |
| Altitude | 33000 |
| Route | LATID7B LATID Q22 SAKRO SARKA6 |
| Aircraft | A21N/M-SDE3FGHIRWY/LB1 |
Departure
| Time | 2026-04-12 04:53 |
|---|---|
| Airport | Kempegowda International Airport Bengaluru (VOBL) |
Arrival
| Time | 2026-04-12 05:37 |
|---|---|
| Airport | Rajiv Gandhi International Airport (VOHS) |
| Time | Latitude | Longitude | Altitude | Speed | Heading |
|---|---|---|---|---|---|
| 2026-04-12 04:40 | 13.20289 | 77.69912 | 3009 ft | 2 kts | 75° |
| 2026-04-12 04:40 | 13.20287 | 77.69902 | 3009 ft | 1 kts | 90° |
| 2026-04-12 04:40 | 13.20288 | 77.69895 | 3009 ft | 0 kts | 91° |
| 2026-04-12 04:41 | 13.20288 | 77.69896 | 3009 ft | 0 kts | 91° |
| 2026-04-12 04:44 | 13.20287 | 77.69899 | 3009 ft | 0 kts | 91° |
| 2026-04-12 04:44 | 13.20287 | 77.69907 | 3009 ft | 1 kts | 91° |
| 2026-04-12 04:45 | 13.20287 | 77.69921 | 3009 ft | 2 kts | 91° |
| 2026-04-12 04:45 | 13.20287 | 77.69944 | 3009 ft | 3 kts | 90° |
| 2026-04-12 04:45 | 13.20286 | 77.69983 | 3009 ft | 6 kts | 90° |
| 2026-04-12 04:45 | 13.20286 | 77.70042 | 3009 ft | 9 kts | 90° |
| 2026-04-12 04:46 | 13.20286 | 77.70119 | 3009 ft | 11 kts | 90° |
| 2026-04-12 04:46 | 13.20285 | 77.70205 | 3009 ft | 11 kts | 91° |
| 2026-04-12 04:46 | 13.20284 | 77.70292 | 3009 ft | 11 kts | 90° |
| 2026-04-12 04:46 | 13.20292 | 77.70378 | 3009 ft | 11 kts | 56° |
| 2026-04-12 04:47 | 13.20374 | 77.70395 | 3009 ft | 11 kts | 359° |
| 2026-04-12 04:47 | 13.20460 | 77.70393 | 3009 ft | 11 kts | 359° |
| 2026-04-12 04:47 | 13.20528 | 77.70428 | 3009 ft | 11 kts | 81° |
| 2026-04-12 04:47 | 13.20529 | 77.70518 | 3009 ft | 11 kts | 91° |
| 2026-04-12 04:48 | 13.20528 | 77.70608 | 3009 ft | 12 kts | 90° |
| 2026-04-12 04:48 | 13.20527 | 77.70699 | 3009 ft | 12 kts | 90° |
| 2026-04-12 04:48 | 13.20526 | 77.70801 | 3009 ft | 14 kts | 90° |
| 2026-04-12 04:48 | 13.20526 | 77.70915 | 3009 ft | 15 kts | 88° |
| 2026-04-12 04:49 | 13.20524 | 77.71035 | 3009 ft | 16 kts | 91° |
| 2026-04-12 04:49 | 13.20522 | 77.71167 | 3009 ft | 18 kts | 90° |
| 2026-04-12 04:49 | 13.20522 | 77.71309 | 3009 ft | 19 kts | 90° |
| 2026-04-12 04:49 | 13.20521 | 77.71459 | 3009 ft | 20 kts | 91° |
| 2026-04-12 04:50 | 13.20519 | 77.71616 | 3009 ft | 21 kts | 90° |
| 2026-04-12 04:50 | 13.20517 | 77.71783 | 3009 ft | 22 kts | 91° |
| 2026-04-12 04:50 | 13.20511 | 77.71944 | 3009 ft | 20 kts | 93° |
| 2026-04-12 04:50 | 13.20513 | 77.72091 | 3009 ft | 18 kts | 90° |
| 2026-04-12 04:51 | 13.20517 | 77.72227 | 3009 ft | 17 kts | 84° |
| 2026-04-12 04:51 | 13.20593 | 77.72283 | 3009 ft | 13 kts | 360° |
| 2026-04-12 04:51 | 13.20681 | 77.72264 | 3009 ft | 12 kts | 301° |
| 2026-04-12 04:51 | 13.20687 | 77.72199 | 3009 ft | 0 kts | 269° |
| 2026-04-12 04:52 | 13.20687 | 77.72146 | 3009 ft | 32 kts | 271° |
| 2026-04-12 04:52 | 13.20688 | 77.71619 | 3009 ft | 106 kts | 270° |
| 2026-04-12 04:52 | 13.20699 | 77.70579 | 3009 ft | 166 kts | 269° |
| 2026-04-12 04:52 | 13.20724 | 77.69231 | 3350 ft | 186 kts | 270° |
| 2026-04-12 04:53 | 13.21030 | 77.67844 | 3989 ft | 192 kts | 296° |
| 2026-04-12 04:53 | 13.21820 | 77.66669 | 4708 ft | 194 kts | 307° |
| 2026-04-12 04:53 | 13.23487 | 77.64064 | 5544 ft | 222 kts | 302° |
| 2026-04-12 04:54 | 13.24351 | 77.62569 | 5838 ft | 243 kts | 301° |
| 2026-04-12 04:54 | 13.25283 | 77.60909 | 6201 ft | 263 kts | 300° |
| 2026-04-12 04:54 | 13.26237 | 77.59186 | 6737 ft | 275 kts | 300° |
| 2026-04-12 04:54 | 13.27222 | 77.57396 | 7221 ft | 289 kts | 300° |
| 2026-04-12 04:55 | 13.28250 | 77.55527 | 7927 ft | 295 kts | 300° |
| 2026-04-12 04:55 | 13.29511 | 77.53750 | 8730 ft | 295 kts | 321° |
| 2026-04-12 04:55 | 13.31385 | 77.52723 | 9544 ft | 293 kts | 348° |
| 2026-04-12 04:55 | 13.33499 | 77.52647 | 10352 ft | 292 kts | 12° |
| 2026-04-12 04:56 | 13.35508 | 77.53478 | 10887 ft | 304 kts | 30° |
| 2026-04-12 04:56 | 13.37460 | 77.54682 | 11263 ft | 323 kts | 31° |
| 2026-04-12 04:56 | 13.39511 | 77.55976 | 11808 ft | 334 kts | 31° |
| 2026-04-12 04:56 | 13.41616 | 77.57282 | 12603 ft | 337 kts | 31° |
| 2026-04-12 04:57 | 13.43747 | 77.58581 | 13398 ft | 340 kts | 30° |
| 2026-04-12 04:57 | 13.45921 | 77.59894 | 14172 ft | 344 kts | 30° |
| 2026-04-12 04:57 | 13.48076 | 77.61191 | 14920 ft | 347 kts | 30° |
| 2026-04-12 04:57 | 13.50303 | 77.62517 | 15670 ft | 351 kts | 28° |
| 2026-04-12 04:58 | 13.52573 | 77.63670 | 16392 ft | 354 kts | 24° |
| 2026-04-12 04:58 | 13.55022 | 77.64640 | 17122 ft | 358 kts | 19° |
| 2026-04-12 04:58 | 13.57523 | 77.65470 | 17836 ft | 361 kts | 18° |
| 2026-04-12 04:58 | 13.60048 | 77.66285 | 18534 ft | 364 kts | 18° |
| 2026-04-12 04:59 | 13.62603 | 77.67108 | 19220 ft | 368 kts | 18° |
| 2026-04-12 04:59 | 13.65147 | 77.67931 | 19887 ft | 371 kts | 18° |
| 2026-04-12 04:59 | 13.67778 | 77.68784 | 20559 ft | 375 kts | 18° |
| 2026-04-12 04:59 | 13.70371 | 77.69627 | 21204 ft | 378 kts | 18° |
| 2026-04-12 05:00 | 13.73058 | 77.70502 | 21855 ft | 382 kts | 18° |
| 2026-04-12 05:00 | 13.75713 | 77.71367 | 22481 ft | 385 kts | 18° |
| 2026-04-12 05:00 | 13.78419 | 77.72249 | 23105 ft | 389 kts | 18° |
| 2026-04-12 05:00 | 13.81140 | 77.73136 | 23708 ft | 392 kts | 18° |
| 2026-04-12 05:01 | 13.83887 | 77.74032 | 24291 ft | 395 kts | 18° |
| 2026-04-12 05:01 | 13.86647 | 77.74932 | 24849 ft | 398 kts | 18° |
| 2026-04-12 05:01 | 13.89407 | 77.75833 | 25383 ft | 401 kts | 19° |
| 2026-04-12 05:01 | 13.92239 | 77.76758 | 25908 ft | 404 kts | 19° |
| 2026-04-12 05:02 | 13.95078 | 77.77685 | 26406 ft | 408 kts | 19° |
| 2026-04-12 05:02 | 13.96979 | 77.78306 | 26728 ft | 409 kts | 19° |
| 2026-04-12 05:03 | 14.09884 | 77.82523 | 28696 ft | 422 kts | 19° |
| 2026-04-12 05:03 | 14.12805 | 77.83478 | 29097 ft | 424 kts | 19° |
| 2026-04-12 05:03 | 14.15782 | 77.84453 | 29485 ft | 427 kts | 19° |
| 2026-04-12 05:04 | 14.18757 | 77.85426 | 29855 ft | 430 kts | 19° |
| 2026-04-12 05:04 | 14.21749 | 77.86405 | 30213 ft | 432 kts | 19° |
| 2026-04-12 05:04 | 14.24766 | 77.87393 | 30560 ft | 435 kts | 19° |
| 2026-04-12 05:04 | 14.27799 | 77.88386 | 30898 ft | 437 kts | 19° |
| 2026-04-12 05:05 | 14.30841 | 77.89383 | 31224 ft | 440 kts | 19° |
| 2026-04-12 05:05 | 14.33913 | 77.90389 | 31540 ft | 442 kts | 19° |
| 2026-04-12 05:05 | 14.36983 | 77.91395 | 31859 ft | 443 kts | 19° |
| 2026-04-12 05:05 | 14.40092 | 77.92414 | 32231 ft | 443 kts | 19° |
| 2026-04-12 05:06 | 14.42149 | 77.93089 | 32462 ft | 444 kts | 19° |
| 2026-04-12 05:06 | 14.46297 | 77.94375 | 32847 ft | 446 kts | 17° |
| 2026-04-12 05:06 | 14.49493 | 77.95157 | 32905 ft | 449 kts | 13° |
| 2026-04-12 05:07 | 14.55935 | 77.96312 | 32910 ft | 449 kts | 11° |
| 2026-04-12 05:07 | 14.62415 | 77.97398 | 32911 ft | 449 kts | 11° |
| 2026-04-12 05:08 | 14.68819 | 77.98476 | 32911 ft | 449 kts | 11° |
| 2026-04-12 05:08 | 14.75203 | 77.99554 | 32911 ft | 449 kts | 11° |
| 2026-04-12 05:09 | 14.81563 | 78.00631 | 32911 ft | 449 kts | 11° |
| 2026-04-12 05:09 | 14.88012 | 78.01723 | 32911 ft | 449 kts | 11° |
| 2026-04-12 05:10 | 14.94475 | 78.02820 | 32911 ft | 450 kts | 11° |
| 2026-04-12 05:10 | 15.00880 | 78.03908 | 32911 ft | 452 kts | 11° |
| 2026-04-12 05:11 | 15.07295 | 78.04997 | 32911 ft | 453 kts | 11° |
| 2026-04-12 05:11 | 15.13758 | 78.06092 | 32912 ft | 453 kts | 11° |
| 2026-04-12 05:12 | 15.20161 | 78.07179 | 32911 ft | 453 kts | 11° |
| 2026-04-12 05:12 | 15.26633 | 78.08279 | 32911 ft | 453 kts | 11° |
| 2026-04-12 05:13 | 15.33066 | 78.09373 | 32911 ft | 453 kts | 11° |
| 2026-04-12 05:13 | 15.39529 | 78.10458 | 32911 ft | 453 kts | 10° |
| 2026-04-12 05:14 | 15.45997 | 78.11510 | 32911 ft | 453 kts | 10° |
| 2026-04-12 05:14 | 15.52427 | 78.12556 | 32911 ft | 454 kts | 10° |
| 2026-04-12 05:15 | 15.58883 | 78.13610 | 32911 ft | 453 kts | 10° |
| 2026-04-12 05:15 | 15.65358 | 78.14668 | 32911 ft | 453 kts | 10° |
| 2026-04-12 05:16 | 15.71775 | 78.15717 | 32912 ft | 454 kts | 10° |
| 2026-04-12 05:16 | 15.78110 | 78.16755 | 32927 ft | 454 kts | 10° |
| 2026-04-12 05:17 | 15.84473 | 78.17797 | 32348 ft | 458 kts | 10° |
| 2026-04-12 05:17 | 15.87657 | 78.18319 | 31482 ft | 461 kts | 10° |
| 2026-04-12 05:17 | 15.90857 | 78.18844 | 30678 ft | 461 kts | 10° |
| 2026-04-12 05:17 | 15.94126 | 78.19379 | 30135 ft | 454 kts | 10° |
| 2026-04-12 05:18 | 15.97359 | 78.19909 | 29624 ft | 448 kts | 10° |
| 2026-04-12 05:18 | 16.00566 | 78.20435 | 29118 ft | 442 kts | 10° |
| 2026-04-12 05:18 | 16.03675 | 78.20944 | 28624 ft | 436 kts | 10° |
| 2026-04-12 05:18 | 16.06755 | 78.21449 | 28131 ft | 430 kts | 10° |
| 2026-04-12 05:19 | 16.09780 | 78.21946 | 27643 ft | 425 kts | 10° |
| 2026-04-12 05:19 | 16.12790 | 78.22440 | 27156 ft | 420 kts | 10° |
| 2026-04-12 05:19 | 16.15774 | 78.22930 | 26669 ft | 415 kts | 10° |
| 2026-04-12 05:19 | 16.18691 | 78.23409 | 26188 ft | 411 kts | 10° |
| 2026-04-12 05:20 | 16.21625 | 78.23891 | 25704 ft | 407 kts | 10° |
| 2026-04-12 05:20 | 16.24513 | 78.24366 | 25224 ft | 403 kts | 10° |
| 2026-04-12 05:20 | 16.27375 | 78.24835 | 24744 ft | 400 kts | 10° |
| 2026-04-12 05:20 | 16.30233 | 78.25304 | 24261 ft | 397 kts | 10° |
| 2026-04-12 05:21 | 16.32087 | 78.25607 | 23945 ft | 394 kts | 10° |
| 2026-04-12 05:21 | 16.35749 | 78.26208 | 23321 ft | 390 kts | 10° |
| 2026-04-12 05:21 | 16.38464 | 78.26653 | 22853 ft | 387 kts | 10° |
| 2026-04-12 05:21 | 16.41154 | 78.27094 | 22388 ft | 384 kts | 10° |
| 2026-04-12 05:22 | 16.43840 | 78.27535 | 21918 ft | 381 kts | 10° |
| 2026-04-12 05:22 | 16.46451 | 78.27963 | 21460 ft | 379 kts | 10° |
| 2026-04-12 05:22 | 16.49074 | 78.28394 | 20997 ft | 376 kts | 9° |
| 2026-04-12 05:22 | 16.51659 | 78.28818 | 20539 ft | 373 kts | 9° |
| 2026-04-12 05:23 | 16.54257 | 78.29245 | 20074 ft | 370 kts | 9° |
| 2026-04-12 05:23 | 16.56846 | 78.29671 | 19610 ft | 368 kts | 9° |
| 2026-04-12 05:23 | 16.58571 | 78.29955 | 19302 ft | 366 kts | 9° |
| 2026-04-12 05:23 | 16.61947 | 78.30514 | 18692 ft | 362 kts | 9° |
| 2026-04-12 05:24 | 16.64440 | 78.30926 | 18238 ft | 360 kts | 9° |
| 2026-04-12 05:24 | 16.66913 | 78.31335 | 17784 ft | 357 kts | 9° |
| 2026-04-12 05:24 | 16.69370 | 78.31741 | 17332 ft | 355 kts | 9° |
| 2026-04-12 05:24 | 16.71817 | 78.32146 | 16879 ft | 352 kts | 9° |
| 2026-04-12 05:25 | 16.73433 | 78.32413 | 16579 ft | 350 kts | 9° |
| 2026-04-12 05:25 | 16.76649 | 78.32945 | 15979 ft | 347 kts | 9° |
| 2026-04-12 05:25 | 16.78231 | 78.33207 | 15683 ft | 346 kts | 9° |
| 2026-04-12 05:25 | 16.81411 | 78.33733 | 15086 ft | 342 kts | 9° |
| 2026-04-12 05:26 | 16.83800 | 78.34129 | 14634 ft | 340 kts | 9° |
| 2026-04-12 05:26 | 16.86161 | 78.34520 | 14186 ft | 338 kts | 9° |
| 2026-04-12 05:26 | 16.88555 | 78.34916 | 13729 ft | 335 kts | 9° |
| 2026-04-12 05:26 | 16.90891 | 78.35303 | 13283 ft | 333 kts | 9° |
| 2026-04-12 05:27 | 16.93247 | 78.35690 | 12828 ft | 331 kts | 9° |
| 2026-04-12 05:27 | 16.95554 | 78.36070 | 12379 ft | 329 kts | 9° |
| 2026-04-12 05:27 | 16.97876 | 78.36451 | 11923 ft | 327 kts | 9° |
| 2026-04-12 05:27 | 17.00166 | 78.36826 | 11465 ft | 325 kts | 9° |
| 2026-04-12 05:28 | 17.02454 | 78.37200 | 11006 ft | 324 kts | 9° |
| 2026-04-12 05:28 | 17.04741 | 78.37575 | 10551 ft | 322 kts | 9° |
| 2026-04-12 05:28 | 17.06955 | 78.37940 | 10368 ft | 310 kts | 9° |
| 2026-04-12 05:28 | 17.09100 | 78.38293 | 10223 ft | 298 kts | 9° |
| 2026-04-12 05:29 | 17.10470 | 78.38518 | 10126 ft | 290 kts | 9° |
| 2026-04-12 05:29 | 17.13151 | 78.38959 | 9788 ft | 282 kts | 9° |
| 2026-04-12 05:29 | 17.15146 | 78.39288 | 9492 ft | 277 kts | 9° |
| 2026-04-12 05:29 | 17.17073 | 78.39604 | 9389 ft | 264 kts | 9° |
| 2026-04-12 05:30 | 17.18280 | 78.39803 | 9320 ft | 256 kts | 9° |
| 2026-04-12 05:30 | 17.20047 | 78.40135 | 9194 ft | 251 kts | 19° |
| 2026-04-12 05:30 | 17.21836 | 78.41696 | 8967 ft | 249 kts | 65° |
| 2026-04-12 05:30 | 17.22136 | 78.43485 | 8595 ft | 249 kts | 98° |
| 2026-04-12 05:31 | 17.21675 | 78.45264 | 8270 ft | 247 kts | 108° |
| 2026-04-12 05:31 | 17.21123 | 78.47008 | 7946 ft | 244 kts | 108° |
| 2026-04-12 05:31 | 17.20764 | 78.48148 | 7737 ft | 243 kts | 108° |
| 2026-04-12 05:31 | 17.20062 | 78.50446 | 7317 ft | 242 kts | 107° |
| 2026-04-12 05:32 | 17.19543 | 78.52178 | 7000 ft | 241 kts | 107° |
| 2026-04-12 05:32 | 17.19035 | 78.53893 | 6687 ft | 240 kts | 107° |
| 2026-04-12 05:32 | 17.18692 | 78.55056 | 6474 ft | 239 kts | 107° |
| 2026-04-12 05:32 | 17.18191 | 78.56750 | 6167 ft | 239 kts | 107° |
| 2026-04-12 05:33 | 17.17534 | 78.59013 | 5743 ft | 238 kts | 103° |
| 2026-04-12 05:33 | 17.17598 | 78.60787 | 5342 ft | 239 kts | 66° |
| 2026-04-12 05:33 | 17.18704 | 78.62046 | 5164 ft | 231 kts | 25° |
| 2026-04-12 05:33 | 17.20303 | 78.62227 | 5035 ft | 229 kts | 342° |
| 2026-04-12 05:34 | 17.21637 | 78.61282 | 4891 ft | 229 kts | 304° |
| 2026-04-12 05:34 | 17.22184 | 78.60307 | 4826 ft | 228 kts | 296° |
| 2026-04-12 05:34 | 17.22975 | 78.58274 | 4597 ft | 214 kts | 279° |
| 2026-04-12 05:34 | 17.23106 | 78.56679 | 4185 ft | 210 kts | 269° |
| 2026-04-12 05:35 | 17.23082 | 78.55174 | 3892 ft | 196 kts | 266° |
| 2026-04-12 05:35 | 17.23039 | 78.53764 | 3646 ft | 181 kts | 266° |
| 2026-04-12 05:35 | 17.23012 | 78.52451 | 3400 ft | 167 kts | 267° |
| 2026-04-12 05:35 | 17.22996 | 78.51260 | 3167 ft | 152 kts | 267° |
| 2026-04-12 05:36 | 17.22982 | 78.50150 | 2967 ft | 149 kts | 266° |
| 2026-04-12 05:36 | 17.22966 | 78.49033 | 2773 ft | 148 kts | 266° |
| 2026-04-12 05:36 | 17.22955 | 78.47928 | 2582 ft | 147 kts | 267° |
| 2026-04-12 05:36 | 17.22945 | 78.46832 | 2377 ft | 147 kts | 267° |
| 2026-04-12 05:37 | 17.22928 | 78.45731 | 2178 ft | 146 kts | 266° |
| 2026-04-12 05:37 | 17.22912 | 78.44649 | 2045 ft | 137 kts | 267° |
| 2026-04-12 05:37 | 17.22893 | 78.43809 | 2036 ft | 84 kts | 269° |
| 2026-04-12 05:37 | 17.22891 | 78.43369 | 2019 ft | 39 kts | 269° |
| 2026-04-12 05:38 | 17.22901 | 78.43095 | 2012 ft | 35 kts | 285° |
| 2026-04-12 05:38 | 17.22983 | 78.42911 | 2004 ft | 6 kts | 301° |
| 2026-04-12 05:38 | 17.23006 | 78.42870 | 2003 ft | 8 kts | 301° |
| 2026-04-12 05:38 | 17.23040 | 78.42813 | 2000 ft | 5 kts | 312° |
| 2026-04-12 05:39 | 17.23065 | 78.42804 | 2000 ft | 3 kts | 343° |
| 2026-04-12 05:39 | 17.23097 | 78.42760 | 1998 ft | 8 kts | 302° |
| 2026-04-12 05:39 | 17.23152 | 78.42731 | 1997 ft | 9 kts | 356° |
| 2026-04-12 05:39 | 17.23214 | 78.42731 | 1998 ft | 8 kts | 358° |
| 2026-04-12 05:40 | 17.23270 | 78.42728 | 1999 ft | 7 kts | 358° |
| 2026-04-12 05:40 | 17.23318 | 78.42741 | 2000 ft | 6 kts | 49° |
| 2026-04-12 05:40 | 17.23328 | 78.42780 | 2001 ft | 0 kts | 84° |
| 2026-04-12 05:41 | 17.23328 | 78.42779 | 2001 ft | 0 kts | 84° |
| 2026-04-12 05:41 | 17.23328 | 78.42777 | 2001 ft | 0 kts | 84° |
| 2026-04-12 05:41 | 17.23328 | 78.42776 | 2001 ft | 0 kts | 84° |
| 2026-04-12 05:41 | 17.23329 | 78.42793 | 2002 ft | 2 kts | 86° |
| 2026-04-12 05:42 | 17.23331 | 78.42820 | 2003 ft | 4 kts | 87° |
| 2026-04-12 05:42 | 17.23331 | 78.42834 | 2004 ft | 0 kts | 87° |
| 2026-04-12 05:42 | 17.23331 | 78.42835 | 2004 ft | 0 kts | 87° |
| 2026-04-12 05:45 | 17.23332 | 78.42843 | 2004 ft | 1 kts | 87° |
| 2026-04-12 05:45 | 17.23331 | 78.42837 | 2004 ft | 1 kts | 87° |
| 2026-04-12 05:45 | 17.23331 | 78.42830 | 2003 ft | 0 kts | 87° |
| 2026-04-12 05:46 | 17.23331 | 78.42831 | 2003 ft | 1 kts | 87° |
| 2026-04-12 05:46 | 17.23333 | 78.42850 | 2004 ft | 4 kts | 76° |
| 2026-04-12 05:46 | 17.23366 | 78.42873 | 2004 ft | 7 kts | 7° |
| 2026-04-12 05:47 | 17.23417 | 78.42874 | 2003 ft | 1 kts | 360° |
| 2026-04-12 05:47 | 17.23418 | 78.42874 | 2003 ft | 0 kts | 360° |